sensor_id;sensor_type;location;lat;lon;timestamp;P1;durP1;ratioP1;P2;durP2;ratioP2
15820;SDS011;8011;51.650;7.240;2022-11-18T04:01:54;2.73;;;2.20;;
15820;SDS011;8011;51.650;7.240;2022-11-18T04:04:24;2.53;;;2.10;;
15820;SDS011;8011;51.650;7.240;2022-11-18T04:09:50;4.87;;;2.33;;
15820;SDS011;8011;51.650;7.240;2022-11-18T04:12:48;3.60;;;2.20;;
15820;SDS011;8011;51.650;7.240;2022-11-18T04:15:48;3.90;;;2.47;;
15820;SDS011;8011;51.650;7.240;2022-11-18T04:18:14;4.40;;;2.27;;
15820;SDS011;8011;51.650;7.240;2022-11-18T04:20:40;3.50;;;2.07;;
15820;SDS011;8011;51.650;7.240;2022-11-18T04:23:06;3.20;;;2.20;;
15820;SDS011;8011;51.650;7.240;2022-11-18T04:25:34;5.03;;;2.47;;
15820;SDS011;8011;51.650;7.240;2022-11-18T04:28:00;2.90;;;2.30;;
15820;SDS011;8011;51.650;7.240;2022-11-18T04:30:26;3.77;;;2.53;;
15820;SDS011;8011;51.650;7.240;2022-11-18T04:32:52;3.53;;;2.20;;
15820;SDS011;8011;51.650;7.240;2022-11-18T04:35:18;4.73;;;2.50;;
15820;SDS011;8011;51.650;7.240;2022-11-18T04:37:43;3.57;;;2.37;;
15820;SDS011;8011;51.650;7.240;2022-11-18T04:40:09;4.83;;;3.53;;
15820;SDS011;8011;51.650;7.240;2022-11-18T04:42:35;3.60;;;3.00;;
15820;SDS011;8011;51.650;7.240;2022-11-18T04:45:01;8.60;;;4.07;;
15820;SDS011;8011;51.650;7.240;2022-11-18T04:47:27;6.57;;;4.00;;
15820;SDS011;8011;51.650;7.240;2022-11-18T04:49:53;5.70;;;3.53;;
15820;SDS011;8011;51.650;7.240;2022-11-18T04:52:19;5.63;;;3.40;;
15820;SDS011;8011;51.650;7.240;2022-11-18T04:54:44;5.20;;;3.20;;
15820;SDS011;8011;51.650;7.240;2022-11-18T04:57:10;5.30;;;3.30;;
15820;SDS011;8011;51.650;7.240;2022-11-18T04:59:36;6.57;;;3.30;;
15820;SDS011;8011;51.650;7.240;2022-11-18T05:02:02;4.70;;;3.27;;
15820;SDS011;8011;51.650;7.240;2022-11-18T05:04:29;6.83;;;2.93;;
15820;SDS011;8011;51.650;7.240;2022-11-18T05:06:57;4.80;;;2.80;;
15820;SDS011;8011;51.650;7.240;2022-11-18T05:09:24;4.07;;;2.97;;
15820;SDS011;8011;51.650;7.240;2022-11-18T05:11:50;4.23;;;2.90;;
15820;SDS011;8011;51.650;7.240;2022-11-18T05:14:34;4.83;;;2.80;;
15820;SDS011;8011;51.650;7.240;2022-11-18T05:17:01;7.13;;;2.87;;
15820;SDS011;8011;51.650;7.240;2022-11-18T05:19:28;4.87;;;3.17;;
15820;SDS011;8011;51.650;7.240;2022-11-18T05:21:54;4.43;;;2.50;;
15820;SDS011;8011;51.650;7.240;2022-11-18T05:24:20;3.80;;;2.60;;
15820;SDS011;8011;51.650;7.240;2022-11-18T05:26:48;4.10;;;2.90;;
15820;SDS011;8011;51.650;7.240;2022-11-18T05:29:18;3.73;;;2.63;;
15820;SDS011;8011;51.650;7.240;2022-11-18T05:31:45;4.67;;;2.57;;
15820;SDS011;8011;51.650;7.240;2022-11-18T05:34:11;3.40;;;2.60;;
15820;SDS011;8011;51.650;7.240;2022-11-18T05:36:42;3.83;;;2.90;;
15820;SDS011;8011;51.650;7.240;2022-11-18T05:39:07;4.80;;;2.90;;
15820;SDS011;8011;51.650;7.240;2022-11-18T05:41:34;4.77;;;3.43;;
15820;SDS011;8011;51.650;7.240;2022-11-18T05:44:18;4.83;;;3.00;;
15820;SDS011;8011;51.650;7.240;2022-11-18T05:46:44;5.37;;;3.47;;
15820;SDS011;8011;51.650;7.240;2022-11-18T05:49:11;5.67;;;3.40;;
15820;SDS011;8011;51.650;7.240;2022-11-18T05:51:36;4.53;;;3.27;;
15820;SDS011;8011;51.650;7.240;2022-11-18T05:54:03;5.70;;;3.57;;
15820;SDS011;8011;51.650;7.240;2022-11-18T05:56:35;6.43;;;3.63;;
15820;SDS011;8011;51.650;7.240;2022-11-18T05:59:03;4.63;;;3.47;;
15820;SDS011;8011;51.650;7.240;2022-11-18T06:04:07;3.90;;;3.50;;
15820;SDS011;8011;51.650;7.240;2022-11-18T06:06:38;6.60;;;3.60;;
15820;SDS011;8011;51.650;7.240;2022-11-18T06:09:04;8.17;;;3.20;;
15820;SDS011;8011;51.650;7.240;2022-11-18T06:11:34;6.67;;;3.27;;
15820;SDS011;8011;51.650;7.240;2022-11-18T06:14:11;29.10;;;19.00;;
15820;SDS011;8011;51.650;7.240;2022-11-18T06:16:42;23.10;;;15.83;;
15820;SDS011;8011;51.650;7.240;2022-11-18T06:19:13;38.33;;;26.20;;
15820;SDS011;8011;51.650;7.240;2022-11-18T06:21:39;43.93;;;29.43;;
15820;SDS011;8011;51.650;7.240;2022-11-18T06:24:05;43.17;;;31.33;;
15820;SDS011;8011;51.650;7.240;2022-11-18T06:26:33;28.90;;;20.27;;
15820;SDS011;8011;51.650;7.240;2022-11-18T06:29:00;30.57;;;22.27;;
15820;SDS011;8011;51.650;7.240;2022-11-18T06:31:26;34.07;;;21.93;;
15820;SDS011;8011;51.650;7.240;2022-11-18T06:33:52;13.17;;;9.50;;
15820;SDS011;8011;51.650;7.240;2022-11-18T06:36:17;12.07;;;7.10;;
15820;SDS011;8011;51.650;7.240;2022-11-18T06:38:43;10.03;;;7.47;;
15820;SDS011;8011;51.650;7.240;2022-11-18T06:41:09;20.47;;;12.47;;
15820;SDS011;8011;51.650;7.240;2022-11-18T06:43:34;19.27;;;10.37;;
15820;SDS011;8011;51.650;7.240;2022-11-18T06:46:03;13.87;;;9.00;;
15820;SDS011;8011;51.650;7.240;2022-11-18T06:48:49;13.30;;;8.60;;
15820;SDS011;8011;51.650;7.240;2022-11-18T06:51:17;16.53;;;9.27;;
15820;SDS011;8011;51.650;7.240;2022-11-18T06:53:43;20.20;;;10.97;;
15820;SDS011;8011;51.650;7.240;2022-11-18T06:56:09;16.43;;;9.60;;
15820;SDS011;8011;51.650;7.240;2022-11-18T06:58:37;65.17;;;34.27;;
15820;SDS011;8011;51.650;7.240;2022-11-18T07:01:13;47.97;;;26.97;;
15820;SDS011;8011;51.650;7.240;2022-11-18T07:03:41;40.77;;;24.67;;
15820;SDS011;8011;51.650;7.240;2022-11-18T07:06:08;32.60;;;17.43;;
15820;SDS011;8011;51.650;7.240;2022-11-18T07:08:34;28.10;;;16.47;;
15820;SDS011;8011;51.650;7.240;2022-11-18T07:11:01;22.17;;;14.20;;
15820;SDS011;8011;51.650;7.240;2022-11-18T07:13:34;15.53;;;10.43;;
15820;SDS011;8011;51.650;7.240;2022-11-18T07:16:01;12.87;;;7.50;;
15820;SDS011;8011;51.650;7.240;2022-11-18T07:18:29;12.00;;;6.87;;
15820;SDS011;8011;51.650;7.240;2022-11-18T07:21:05;9.93;;;6.27;;
15820;SDS011;8011;51.650;7.240;2022-11-18T07:23:32;8.57;;;5.47;;
15820;SDS011;8011;51.650;7.240;2022-11-18T07:25:59;7.07;;;6.07;;
15820;SDS011;8011;51.650;7.240;2022-11-18T07:28:25;9.43;;;6.57;;
15820;SDS011;8011;51.650;7.240;2022-11-18T07:30:51;8.33;;;6.03;;
15820;SDS011;8011;51.650;7.240;2022-11-18T07:33:17;10.63;;;5.90;;
15820;SDS011;8011;51.650;7.240;2022-11-18T07:35:43;6.97;;;4.83;;
15820;SDS011;8011;51.650;7.240;2022-11-18T07:38:08;9.43;;;6.00;;
15820;SDS011;8011;51.650;7.240;2022-11-18T07:40:34;9.77;;;6.10;;
15820;SDS011;8011;51.650;7.240;2022-11-18T07:43:00;7.20;;;5.57;;
15820;SDS011;8011;51.650;7.240;2022-11-18T07:45:25;7.00;;;5.80;;
15820;SDS011;8011;51.650;7.240;2022-11-18T07:50:21;5.73;;;5.17;;
15820;SDS011;8011;51.650;7.240;2022-11-18T07:52:46;9.37;;;5.57;;
15820;SDS011;8011;51.650;7.240;2022-11-18T07:55:12;11.80;;;8.23;;
15820;SDS011;8011;51.650;7.240;2022-11-18T07:57:41;10.83;;;8.53;;
15820;SDS011;8011;51.650;7.240;2022-11-18T08:00:07;8.37;;;7.50;;
15820;SDS011;8011;51.650;7.240;2022-11-18T08:02:33;14.37;;;10.50;;
15820;SDS011;8011;51.650;7.240;2022-11-18T08:04:58;11.07;;;9.00;;
15820;SDS011;8011;51.650;7.240;2022-11-18T08:07:24;10.33;;;8.50;;
15820;SDS011;8011;51.650;7.240;2022-11-18T08:09:50;11.03;;;7.60;;
15820;SDS011;8011;51.650;7.240;2022-11-18T08:12:15;12.40;;;8.00;;
15820;SDS011;8011;51.650;7.240;2022-11-18T08:14:41;11.07;;;7.73;;
15820;SDS011;8011;51.650;7.240;2022-11-18T08:17:07;11.10;;;7.87;;
15820;SDS011;8011;51.650;7.240;2022-11-18T08:19:33;9.87;;;7.03;;
15820;SDS011;8011;51.650;7.240;2022-11-18T08:21:58;12.20;;;8.30;;
15820;SDS011;8011;51.650;7.240;2022-11-18T08:24:24;9.73;;;8.53;;
15820;SDS011;8011;51.650;7.240;2022-11-18T08:26:50;13.30;;;10.50;;
15820;SDS011;8011;51.650;7.240;2022-11-18T08:29:16;11.50;;;8.20;;
15820;SDS011;8011;51.650;7.240;2022-11-18T08:31:41;11.47;;;8.23;;
15820;SDS011;8011;51.650;7.240;2022-11-18T08:34:07;11.50;;;7.23;;
15820;SDS011;8011;51.650;7.240;2022-11-18T08:36:34;7.90;;;5.43;;
15820;SDS011;8011;51.650;7.240;2022-11-18T08:39:02;8.17;;;5.90;;
15820;SDS011;8011;51.650;7.240;2022-11-18T08:41:31;7.87;;;5.23;;
15820;SDS011;8011;51.650;7.240;2022-11-18T08:44:00;12.83;;;5.67;;
15820;SDS011;8011;51.650;7.240;2022-11-18T08:46:27;10.27;;;4.93;;
15820;SDS011;8011;51.650;7.240;2022-11-18T08:48:53;7.63;;;4.90;;
15820;SDS011;8011;51.650;7.240;2022-11-18T08:51:18;8.13;;;5.37;;
15820;SDS011;8011;51.650;7.240;2022-11-18T08:53:44;8.40;;;5.63;;
15820;SDS011;8011;51.650;7.240;2022-11-18T08:56:14;8.13;;;4.63;;
15820;SDS011;8011;51.650;7.240;2022-11-18T08:58:42;9.93;;;5.03;;
15820;SDS011;8011;51.650;7.240;2022-11-18T09:01:08;12.67;;;5.00;;
15820;SDS011;8011;51.650;7.240;2022-11-18T09:03:34;10.57;;;5.10;;
15820;SDS011;8011;51.650;7.240;2022-11-18T09:06:16;7.33;;;4.63;;
15820;SDS011;8011;51.650;7.240;2022-11-18T09:08:44;9.37;;;4.67;;
15820;SDS011;8011;51.650;7.240;2022-11-18T09:11:11;9.47;;;5.10;;
15820;SDS011;8011;51.650;7.240;2022-11-18T09:13:39;9.90;;;5.30;;
15820;SDS011;8011;51.650;7.240;2022-11-18T09:16:05;8.27;;;4.90;;
15820;SDS011;8011;51.650;7.240;2022-11-18T09:18:31;8.20;;;4.80;;
15820;SDS011;8011;51.650;7.240;2022-11-18T09:20:58;8.63;;;5.33;;
15820;SDS011;8011;51.650;7.240;2022-11-18T09:23:26;8.87;;;5.63;;
15820;SDS011;8011;51.650;7.240;2022-11-18T09:26:00;10.27;;;5.93;;
15820;SDS011;8011;51.650;7.240;2022-11-18T09:28:28;7.47;;;5.67;;
15820;SDS011;8011;51.650;7.240;2022-11-18T09:30:54;8.57;;;6.07;;
15820;SDS011;8011;51.650;7.240;2022-11-18T09:33:20;9.73;;;6.37;;
15820;SDS011;8011;51.650;7.240;2022-11-18T09:35:46;9.93;;;5.70;;
15820;SDS011;8011;51.650;7.240;2022-11-18T09:38:11;8.77;;;5.70;;
15820;SDS011;8011;51.650;7.240;2022-11-18T09:43:41;10.60;;;6.13;;
15820;SDS011;8011;51.650;7.240;2022-11-18T09:48:56;7.87;;;5.40;;
15820;SDS011;8011;51.650;7.240;2022-11-18T09:51:38;8.17;;;5.23;;
15820;SDS011;8011;51.650;7.240;2022-11-18T09:54:16;10.03;;;5.60;;
15820;SDS011;8011;51.650;7.240;2022-11-18T09:56:47;10.27;;;5.80;;
15820;SDS011;8011;51.650;7.240;2022-11-18T09:59:16;9.47;;;6.13;;
15820;SDS011;8011;51.650;7.240;2022-11-18T10:01:43;10.53;;;6.63;;
15820;SDS011;8011;51.650;7.240;2022-11-18T10:04:14;10.27;;;6.10;;
15820;SDS011;8011;51.650;7.240;2022-11-18T10:06:41;9.53;;;6.47;;
15820;SDS011;8011;51.650;7.240;2022-11-18T10:17:15;10.87;;;7.73;;
15820;SDS011;8011;51.650;7.240;2022-11-18T10:19:53;11.33;;;8.27;;
15820;SDS011;8011;51.650;7.240;2022-11-18T10:22:43;15.87;;;11.67;;
15820;SDS011;8011;51.650;7.240;2022-11-18T10:25:22;14.33;;;11.60;;
15820;SDS011;8011;51.650;7.240;2022-11-18T10:27:49;15.20;;;10.57;;
15820;SDS011;8011;51.650;7.240;2022-11-18T10:30:22;24.17;;;15.70;;
15820;SDS011;8011;51.650;7.240;2022-11-18T10:35:27;17.30;;;12.67;;
15820;SDS011;8011;51.650;7.240;2022-11-18T10:40:31;19.77;;;13.20;;
15820;SDS011;8011;51.650;7.240;2022-11-18T10:42:57;26.47;;;18.37;;
15820;SDS011;8011;51.650;7.240;2022-11-18T10:45:25;22.50;;;15.50;;
15820;SDS011;8011;51.650;7.240;2022-11-18T10:50:42;19.13;;;12.90;;
15820;SDS011;8011;51.650;7.240;2022-11-18T10:53:32;20.67;;;13.47;;
15820;SDS011;8011;51.650;7.240;2022-11-18T10:56:00;13.27;;;11.53;;
15820;SDS011;8011;51.650;7.240;2022-11-18T10:58:34;15.53;;;12.67;;
15820;SDS011;8011;51.650;7.240;2022-11-18T11:03:55;17.20;;;12.27;;
15820;SDS011;8011;51.650;7.240;2022-11-18T11:06:36;18.13;;;12.80;;
15820;SDS011;8011;51.650;7.240;2022-11-18T11:11:41;15.80;;;12.03;;
15820;SDS011;8011;51.650;7.240;2022-11-18T11:16:56;13.80;;;10.77;;
15820;SDS011;8011;51.650;7.240;2022-11-18T11:22:10;14.07;;;10.90;;
15820;SDS011;8011;51.650;7.240;2022-11-18T11:24:36;16.40;;;11.20;;
15820;SDS011;8011;51.650;7.240;2022-11-18T11:32:18;14.90;;;10.30;;
15820;SDS011;8011;51.650;7.240;2022-11-18T11:34:50;15.00;;;10.73;;
15820;SDS011;8011;51.650;7.240;2022-11-18T11:43:07;16.80;;;11.03;;
15820;SDS011;8011;51.650;7.240;2022-11-18T11:48:40;15.00;;;11.03;;
15820;SDS011;8011;51.650;7.240;2022-11-18T11:51:54;15.20;;;10.97;;
15820;SDS011;8011;51.650;7.240;2022-11-18T11:56:50;12.33;;;10.70;;
15820;SDS011;8011;51.650;7.240;2022-11-18T12:04:59;10.90;;;9.13;;
15820;SDS011;8011;51.650;7.240;2022-11-18T12:07:36;13.27;;;8.47;;
15820;SDS011;8011;51.650;7.240;2022-11-18T12:19:28;10.20;;;7.67;;
15820;SDS011;8011;51.650;7.240;2022-11-18T12:26:50;9.97;;;7.57;;
15820;SDS011;8011;51.650;7.240;2022-11-18T12:31:51;10.17;;;8.47;;
15820;SDS011;8011;51.650;7.240;2022-11-18T12:36:51;9.33;;;7.00;;
15820;SDS011;8011;51.650;7.240;2022-11-18T12:41:56;10.03;;;7.10;;
15820;SDS011;8011;51.650;7.240;2022-11-18T12:44:41;9.77;;;7.33;;
15820;SDS011;8011;51.650;7.240;2022-11-18T12:47:12;11.13;;;6.73;;
15820;SDS011;8011;51.650;7.240;2022-11-18T12:54:55;12.83;;;8.67;;
15820;SDS011;8011;51.650;7.240;2022-11-18T12:59:57;10.83;;;5.90;;
15820;SDS011;8011;51.650;7.240;2022-11-18T13:02:26;7.87;;;5.40;;
15820;SDS011;8011;51.650;7.240;2022-11-18T13:07:46;9.07;;;4.80;;
15820;SDS011;8011;51.650;7.240;2022-11-18T13:11:23;9.13;;;5.43;;
15820;SDS011;8011;51.650;7.240;2022-11-18T13:14:01;9.00;;;5.03;;
15820;SDS011;8011;51.650;7.240;2022-11-18T13:16:47;13.30;;;7.17;;
15820;SDS011;8011;51.650;7.240;2022-11-18T13:19:31;10.23;;;6.10;;
15820;SDS011;8011;51.650;7.240;2022-11-18T13:21:58;11.17;;;5.70;;
15820;SDS011;8011;51.650;7.240;2022-11-18T13:24:48;8.47;;;7.00;;
15820;SDS011;8011;51.650;7.240;2022-11-18T13:30:13;11.90;;;8.37;;
15820;SDS011;8011;51.650;7.240;2022-11-18T13:32:43;13.00;;;8.63;;
15820;SDS011;8011;51.650;7.240;2022-11-18T13:35:12;11.87;;;8.53;;
15820;SDS011;8011;51.650;7.240;2022-11-18T13:37:47;14.67;;;9.17;;
15820;SDS011;8011;51.650;7.240;2022-11-18T13:40:18;13.87;;;10.20;;
15820;SDS011;8011;51.650;7.240;2022-11-18T13:42:44;11.33;;;9.73;;
15820;SDS011;8011;51.650;7.240;2022-11-18T13:45:11;15.80;;;9.87;;
15820;SDS011;8011;51.650;7.240;2022-11-18T13:47:39;12.97;;;10.97;;
15820;SDS011;8011;51.650;7.240;2022-11-18T13:50:26;15.20;;;9.90;;
15820;SDS011;8011;51.650;7.240;2022-11-18T13:55:44;15.40;;;11.00;;
15820;SDS011;8011;51.650;7.240;2022-11-18T14:00:57;13.57;;;10.03;;
15820;SDS011;8011;51.650;7.240;2022-11-18T14:03:34;15.07;;;10.27;;
15820;SDS011;8011;51.650;7.240;2022-11-18T14:06:21;16.63;;;10.70;;
15820;SDS011;8011;51.650;7.240;2022-11-18T14:09:02;19.10;;;11.17;;
15820;SDS011;8011;51.650;7.240;2022-11-18T14:11:35;12.97;;;10.33;;
15820;SDS011;8011;51.650;7.240;2022-11-18T14:14:05;12.87;;;10.47;;
15820;SDS011;8011;51.650;7.240;2022-11-18T14:16:37;13.37;;;10.30;;
15820;SDS011;8011;51.650;7.240;2022-11-18T14:19:05;10.67;;;8.83;;
15820;SDS011;8011;51.650;7.240;2022-11-18T14:21:34;11.50;;;8.93;;
15820;SDS011;8011;51.650;7.240;2022-11-18T14:24:02;12.60;;;10.33;;
15820;SDS011;8011;51.650;7.240;2022-11-18T14:26:32;14.07;;;9.53;;
15820;SDS011;8011;51.650;7.240;2022-11-18T14:29:00;11.67;;;8.70;;
15820;SDS011;8011;51.650;7.240;2022-11-18T14:31:44;11.50;;;9.07;;
15820;SDS011;8011;51.650;7.240;2022-11-18T14:34:26;12.30;;;9.83;;
15820;SDS011;8011;51.650;7.240;2022-11-18T14:36:54;19.87;;;13.90;;
15820;SDS011;8011;51.650;7.240;2022-11-18T14:41:54;13.37;;;10.10;;
15820;SDS011;8011;51.650;7.240;2022-11-18T14:44:21;19.97;;;13.80;;
15820;SDS011;8011;51.650;7.240;2022-11-18T14:47:31;19.83;;;12.40;;
15820;SDS011;8011;51.650;7.240;2022-11-18T14:49:45;17.07;;;13.60;;
15820;SDS011;8011;51.650;7.240;2022-11-18T14:52:11;18.30;;;13.63;;
15820;SDS011;8011;51.650;7.240;2022-11-18T14:54:36;15.23;;;13.63;;
15820;SDS011;8011;51.650;7.240;2022-11-18T14:57:03;17.10;;;13.60;;
15820;SDS011;8011;51.650;7.240;2022-11-18T14:59:29;18.53;;;14.20;;
15820;SDS011;8011;51.650;7.240;2022-11-18T15:01:55;15.17;;;13.53;;
15820;SDS011;8011;51.650;7.240;2022-11-18T15:04:22;19.90;;;15.57;;
15820;SDS011;8011;51.650;7.240;2022-11-18T15:06:49;26.20;;;18.53;;
15820;SDS011;8011;51.650;7.240;2022-11-18T15:09:14;25.77;;;19.10;;
15820;SDS011;8011;51.650;7.240;2022-11-18T15:11:40;25.63;;;20.27;;
15820;SDS011;8011;51.650;7.240;2022-11-18T15:14:06;26.73;;;20.17;;
15820;SDS011;8011;51.650;7.240;2022-11-18T15:16:32;23.73;;;21.13;;
15820;SDS011;8011;51.650;7.240;2022-11-18T15:19:00;26.33;;;21.10;;
15820;SDS011;8011;51.650;7.240;2022-11-18T15:21:27;25.63;;;20.27;;
15820;SDS011;8011;51.650;7.240;2022-11-18T15:23:57;24.00;;;18.87;;
15820;SDS011;8011;51.650;7.240;2022-11-18T15:26:29;23.13;;;19.57;;
15820;SDS011;8011;51.650;7.240;2022-11-18T15:29:22;25.73;;;20.93;;
15820;SDS011;8011;51.650;7.240;2022-11-18T15:31:49;27.13;;;20.23;;
15820;SDS011;8011;51.650;7.240;2022-11-18T15:34:16;26.73;;;21.33;;
15820;SDS011;8011;51.650;7.240;2022-11-18T15:36:43;24.13;;;20.47;;
15820;SDS011;8011;51.650;7.240;2022-11-18T15:39:10;25.50;;;19.97;;
15820;SDS011;8011;51.650;7.240;2022-11-18T15:41:36;24.07;;;19.13;;
15820;SDS011;8011;51.650;7.240;2022-11-18T15:44:04;23.87;;;19.20;;
15820;SDS011;8011;51.650;7.240;2022-11-18T15:46:29;27.10;;;19.97;;
15820;SDS011;8011;51.650;7.240;2022-11-18T15:48:57;25.73;;;19.57;;
15820;SDS011;8011;51.650;7.240;2022-11-18T15:51:24;24.33;;;19.30;;
15820;SDS011;8011;51.650;7.240;2022-11-18T15:53:54;24.47;;;18.90;;
15820;SDS011;8011;51.650;7.240;2022-11-18T15:56:23;23.47;;;19.37;;
15820;SDS011;8011;51.650;7.240;2022-11-18T15:58:55;27.13;;;20.03;;
15820;SDS011;8011;51.650;7.240;2022-11-18T16:01:24;25.40;;;19.30;;
15820;SDS011;8011;51.650;7.240;2022-11-18T16:03:51;24.03;;;19.33;;
15820;SDS011;8011;51.650;7.240;2022-11-18T16:06:17;29.00;;;19.90;;
15820;SDS011;8011;51.650;7.240;2022-11-18T16:08:42;26.57;;;19.00;;
15820;SDS011;8011;51.650;7.240;2022-11-18T16:11:15;22.50;;;16.07;;
15820;SDS011;8011;51.650;7.240;2022-11-18T16:14:03;19.80;;;15.60;;
15820;SDS011;8011;51.650;7.240;2022-11-18T16:16:35;18.83;;;14.07;;
15820;SDS011;8011;51.650;7.240;2022-11-18T16:19:05;18.43;;;14.93;;
15820;SDS011;8011;51.650;7.240;2022-11-18T16:21:33;18.77;;;14.23;;
15820;SDS011;8011;51.650;7.240;2022-11-18T16:24:01;17.40;;;14.07;;
15820;SDS011;8011;51.650;7.240;2022-11-18T16:26:28;16.87;;;13.40;;
15820;SDS011;8011;51.650;7.240;2022-11-18T16:28:57;20.20;;;14.33;;
15820;SDS011;8011;51.650;7.240;2022-11-18T16:31:23;22.10;;;16.50;;
15820;SDS011;8011;51.650;7.240;2022-11-18T16:36:38;25.43;;;17.73;;
15820;SDS011;8011;51.650;7.240;2022-11-18T16:39:09;23.80;;;16.70;;
15820;SDS011;8011;51.650;7.240;2022-11-18T16:41:37;19.97;;;15.63;;
15820;SDS011;8011;51.650;7.240;2022-11-18T16:44:05;22.30;;;15.70;;
15820;SDS011;8011;51.650;7.240;2022-11-18T16:46:36;16.27;;;12.53;;
15820;SDS011;8011;51.650;7.240;2022-11-18T16:49:03;13.70;;;9.97;;
15820;SDS011;8011;51.650;7.240;2022-11-18T16:51:31;12.47;;;9.40;;
15820;SDS011;8011;51.650;7.240;2022-11-18T16:53:59;11.90;;;9.43;;
15820;SDS011;8011;51.650;7.240;2022-11-18T16:56:27;12.93;;;8.63;;
15820;SDS011;8011;51.650;7.240;2022-11-18T16:58:58;10.23;;;8.47;;
15820;SDS011;8011;51.650;7.240;2022-11-18T17:01:28;8.43;;;7.27;;
15820;SDS011;8011;51.650;7.240;2022-11-18T17:03:54;9.17;;;7.17;;
15820;SDS011;8011;51.650;7.240;2022-11-18T17:06:20;9.80;;;6.70;;
15820;SDS011;8011;51.650;7.240;2022-11-18T17:08:48;8.50;;;6.93;;
15820;SDS011;8011;51.650;7.240;2022-11-18T17:11:22;9.03;;;7.50;;
15820;SDS011;8011;51.650;7.240;2022-11-18T17:13:48;8.60;;;6.80;;
15820;SDS011;8011;51.650;7.240;2022-11-18T17:16:16;11.13;;;8.60;;
15820;SDS011;8011;51.650;7.240;2022-11-18T17:18:43;12.10;;;8.97;;
15820;SDS011;8011;51.650;7.240;2022-11-18T17:21:11;11.63;;;9.23;;
15820;SDS011;8011;51.650;7.240;2022-11-18T17:23:38;11.40;;;9.13;;
15820;SDS011;8011;51.650;7.240;2022-11-18T17:26:08;14.73;;;10.87;;
15820;SDS011;8011;51.650;7.240;2022-11-18T17:28:34;15.73;;;11.13;;
15820;SDS011;8011;51.650;7.240;2022-11-18T17:31:10;13.63;;;10.23;;
15820;SDS011;8011;51.650;7.240;2022-11-18T17:33:38;14.13;;;9.90;;
15820;SDS011;8011;51.650;7.240;2022-11-18T17:36:08;12.07;;;9.87;;
15820;SDS011;8011;51.650;7.240;2022-11-18T17:38:36;14.37;;;10.30;;
15820;SDS011;8011;51.650;7.240;2022-11-18T17:41:03;16.80;;;11.10;;
15820;SDS011;8011;51.650;7.240;2022-11-18T17:43:30;16.73;;;10.73;;
15820;SDS011;8011;51.650;7.240;2022-11-18T17:45:56;14.27;;;10.00;;
15820;SDS011;8011;51.650;7.240;2022-11-18T17:48:24;16.00;;;10.57;;
15820;SDS011;8011;51.650;7.240;2022-11-18T17:50:51;15.30;;;10.17;;
15820;SDS011;8011;51.650;7.240;2022-11-18T17:53:17;17.73;;;11.53;;
15820;SDS011;8011;51.650;7.240;2022-11-18T17:55:44;14.57;;;11.07;;
15820;SDS011;8011;51.650;7.240;2022-11-18T17:58:11;14.17;;;10.83;;
15820;SDS011;8011;51.650;7.240;2022-11-18T18:00:37;14.53;;;11.17;;
15820;SDS011;8011;51.650;7.240;2022-11-18T18:03:04;15.80;;;10.17;;
15820;SDS011;8011;51.650;7.240;2022-11-18T18:05:30;14.07;;;10.77;;
15820;SDS011;8011;51.650;7.240;2022-11-18T18:07:57;16.67;;;11.07;;
15820;SDS011;8011;51.650;7.240;2022-11-18T18:10:23;17.13;;;11.87;;
15820;SDS011;8011;51.650;7.240;2022-11-18T18:12:50;18.07;;;11.00;;
15820;SDS011;8011;51.650;7.240;2022-11-18T18:15:35;16.33;;;10.77;;
15820;SDS011;8011;51.650;7.240;2022-11-18T18:18:01;15.37;;;10.93;;
15820;SDS011;8011;51.650;7.240;2022-11-18T18:20:27;16.07;;;11.10;;
15820;SDS011;8011;51.650;7.240;2022-11-18T18:22:53;16.97;;;12.43;;
15820;SDS011;8011;51.650;7.240;2022-11-18T18:25:20;18.33;;;12.03;;
15820;SDS011;8011;51.650;7.240;2022-11-18T18:27:46;22.17;;;12.87;;
15820;SDS011;8011;51.650;7.240;2022-11-18T18:30:12;16.67;;;11.97;;
15820;SDS011;8011;51.650;7.240;2022-11-18T18:32:38;14.93;;;11.30;;
15820;SDS011;8011;51.650;7.240;2022-11-18T18:35:04;18.93;;;12.10;;
15820;SDS011;8011;51.650;7.240;2022-11-18T18:37:30;18.17;;;12.13;;
15820;SDS011;8011;51.650;7.240;2022-11-18T18:39:56;19.87;;;12.03;;
15820;SDS011;8011;51.650;7.240;2022-11-18T18:42:21;17.87;;;11.83;;
15820;SDS011;8011;51.650;7.240;2022-11-18T18:44:47;15.57;;;11.87;;
15820;SDS011;8011;51.650;7.240;2022-11-18T18:47:35;15.57;;;11.50;;
15820;SDS011;8011;51.650;7.240;2022-11-18T18:50:01;15.57;;;11.50;;
15820;SDS011;8011;51.650;7.240;2022-11-18T18:52:29;14.23;;;11.03;;
15820;SDS011;8011;51.650;7.240;2022-11-18T18:54:55;19.60;;;12.30;;
15820;SDS011;8011;51.650;7.240;2022-11-18T18:57:21;16.93;;;10.67;;
15820;SDS011;8011;51.650;7.240;2022-11-18T18:59:46;17.37;;;12.23;;
15820;SDS011;8011;51.650;7.240;2022-11-18T19:02:12;16.37;;;11.77;;
15820;SDS011;8011;51.650;7.240;2022-11-18T19:04:38;14.17;;;12.40;;
15820;SDS011;8011;51.650;7.240;2022-11-18T19:07:04;16.50;;;12.40;;
15820;SDS011;8011;51.650;7.240;2022-11-18T19:09:30;16.30;;;12.60;;
15820;SDS011;8011;51.650;7.240;2022-11-18T19:11:59;17.60;;;12.00;;
15820;SDS011;8011;51.650;7.240;2022-11-18T19:14:44;24.30;;;13.50;;
15820;SDS011;8011;51.650;7.240;2022-11-18T19:17:09;16.27;;;12.33;;
15820;SDS011;8011;51.650;7.240;2022-11-18T19:19:35;13.63;;;11.23;;
15820;SDS011;8011;51.650;7.240;2022-11-18T19:22:20;15.53;;;10.40;;
15820;SDS011;8011;51.650;7.240;2022-11-18T19:24:46;13.40;;;11.03;;
15820;SDS011;8011;51.650;7.240;2022-11-18T19:27:11;13.53;;;10.70;;
15820;SDS011;8011;51.650;7.240;2022-11-18T19:29:37;14.80;;;11.20;;
15820;SDS011;8011;51.650;7.240;2022-11-18T19:32:03;14.27;;;11.03;;
15820;SDS011;8011;51.650;7.240;2022-11-18T19:34:28;14.07;;;10.37;;
15820;SDS011;8011;51.650;7.240;2022-11-18T19:36:54;14.20;;;10.27;;
15820;SDS011;8011;51.650;7.240;2022-11-18T19:39:20;11.50;;;10.10;;
15820;SDS011;8011;51.650;7.240;2022-11-18T19:41:45;11.57;;;9.47;;
15820;SDS011;8011;51.650;7.240;2022-11-18T19:44:11;14.67;;;10.23;;
15820;SDS011;8011;51.650;7.240;2022-11-18T19:46:37;13.20;;;9.53;;
15820;SDS011;8011;51.650;7.240;2022-11-18T19:49:03;11.43;;;9.80;;
15820;SDS011;8011;51.650;7.240;2022-11-18T19:51:28;13.53;;;9.83;;
15820;SDS011;8011;51.650;7.240;2022-11-18T19:53:54;11.37;;;9.63;;
15820;SDS011;8011;51.650;7.240;2022-11-18T19:56:20;12.10;;;9.80;;
15820;SDS011;8011;51.650;7.240;2022-11-18T19:58:47;13.63;;;9.87;;
15820;SDS011;8011;51.650;7.240;2022-11-18T20:03:43;11.80;;;9.00;;
15820;SDS011;8011;51.650;7.240;2022-11-18T20:06:10;11.73;;;9.47;;
15820;SDS011;8011;51.650;7.240;2022-11-18T20:08:37;9.67;;;8.67;;
15820;SDS011;8011;51.650;7.240;2022-11-18T20:11:05;13.43;;;9.33;;
15820;SDS011;8011;51.650;7.240;2022-11-18T20:13:32;12.43;;;9.57;;
15820;SDS011;8011;51.650;7.240;2022-11-18T20:16:03;11.73;;;9.20;;
15820;SDS011;8011;51.650;7.240;2022-11-18T20:18:29;13.30;;;9.20;;
15820;SDS011;8011;51.650;7.240;2022-11-18T20:21:06;12.27;;;8.37;;
15820;SDS011;8011;51.650;7.240;2022-11-18T20:23:32;13.00;;;8.27;;
15820;SDS011;8011;51.650;7.240;2022-11-18T20:26:05;9.80;;;7.33;;
15820;SDS011;8011;51.650;7.240;2022-11-18T20:28:37;9.47;;;7.97;;
15820;SDS011;8011;51.650;7.240;2022-11-18T20:31:05;8.73;;;7.03;;
15820;SDS011;8011;51.650;7.240;2022-11-18T20:33:35;8.30;;;7.37;;
15820;SDS011;8011;51.650;7.240;2022-11-18T20:36:03;13.07;;;7.73;;
15820;SDS011;8011;51.650;7.240;2022-11-18T20:38:30;13.63;;;11.07;;
15820;SDS011;8011;51.650;7.240;2022-11-18T20:40:59;7.47;;;6.43;;
15820;SDS011;8011;51.650;7.240;2022-11-18T20:43:26;8.20;;;6.40;;
15820;SDS011;8011;51.650;7.240;2022-11-18T20:45:52;7.70;;;6.73;;
15820;SDS011;8011;51.650;7.240;2022-11-18T20:48:21;7.43;;;6.47;;
15820;SDS011;8011;51.650;7.240;2022-11-18T20:50:47;9.17;;;7.07;;